sensor_id;sensor_type;location;lat;lon;timestamp;P1;durP1;ratioP1;P2;durP2;ratioP2
7887;SDS011;3989;48.810;9.208;2024-01-06T00:01:05;402.23;;;106.40;;
7887;SDS011;3989;48.810;9.208;2024-01-06T00:03:37;397.10;;;100.47;;
7887;SDS011;3989;48.810;9.208;2024-01-06T00:06:05;399.37;;;108.07;;
7887;SDS011;3989;48.810;9.208;2024-01-06T00:08:32;400.90;;;107.73;;
7887;SDS011;3989;48.810;9.208;2024-01-06T00:10:59;403.33;;;110.93;;
7887;SDS011;3989;48.810;9.208;2024-01-06T00:13:28;403.10;;;106.07;;
7887;SDS011;3989;48.810;9.208;2024-01-06T00:15:54;403.67;;;108.87;;
7887;SDS011;3989;48.810;9.208;2024-01-06T00:18:22;407.40;;;115.70;;
7887;SDS011;3989;48.810;9.208;2024-01-06T00:20:49;405.13;;;115.40;;
7887;SDS011;3989;48.810;9.208;2024-01-06T00:23:17;406.03;;;118.80;;
7887;SDS011;3989;48.810;9.208;2024-01-06T00:25:44;408.33;;;112.10;;
7887;SDS011;3989;48.810;9.208;2024-01-06T00:28:13;404.23;;;109.47;;
7887;SDS011;3989;48.810;9.208;2024-01-06T00:30:40;404.67;;;115.17;;
7887;SDS011;3989;48.810;9.208;2024-01-06T00:33:07;408.53;;;122.80;;
7887;SDS011;3989;48.810;9.208;2024-01-06T00:35:34;408.37;;;120.63;;
7887;SDS011;3989;48.810;9.208;2024-01-06T00:38:00;401.43;;;108.87;;
7887;SDS011;3989;48.810;9.208;2024-01-06T00:40:29;410.07;;;123.13;;
7887;SDS011;3989;48.810;9.208;2024-01-06T00:42:57;402.77;;;108.50;;
7887;SDS011;3989;48.810;9.208;2024-01-06T00:45:24;404.63;;;110.00;;
7887;SDS011;3989;48.810;9.208;2024-01-06T00:47:51;404.90;;;112.90;;
7887;SDS011;3989;48.810;9.208;2024-01-06T00:50:18;405.37;;;114.80;;
7887;SDS011;3989;48.810;9.208;2024-01-06T00:52:45;413.20;;;123.67;;
7887;SDS011;3989;48.810;9.208;2024-01-06T00:55:12;403.90;;;111.23;;
7887;SDS011;3989;48.810;9.208;2024-01-06T00:57:40;404.83;;;110.37;;
7887;SDS011;3989;48.810;9.208;2024-01-06T01:00:07;402.47;;;108.10;;
7887;SDS011;3989;48.810;9.208;2024-01-06T01:02:34;404.47;;;113.60;;
7887;SDS011;3989;48.810;9.208;2024-01-06T01:05:01;407.30;;;109.40;;
7887;SDS011;3989;48.810;9.208;2024-01-06T01:07:28;407.87;;;119.80;;
7887;SDS011;3989;48.810;9.208;2024-01-06T01:09:55;397.77;;;104.37;;
7887;SDS011;3989;48.810;9.208;2024-01-06T01:12:23;401.97;;;108.40;;
7887;SDS011;3989;48.810;9.208;2024-01-06T01:14:52;399.63;;;109.57;;
7887;SDS011;3989;48.810;9.208;2024-01-06T01:17:19;399.23;;;106.43;;
7887;SDS011;3989;48.810;9.208;2024-01-06T01:19:46;407.50;;;114.43;;
7887;SDS011;3989;48.810;9.208;2024-01-06T01:22:12;407.33;;;118.50;;
7887;SDS011;3989;48.810;9.208;2024-01-06T01:24:40;403.20;;;107.80;;
7887;SDS011;3989;48.810;9.208;2024-01-06T01:27:08;404.07;;;107.93;;
7887;SDS011;3989;48.810;9.208;2024-01-06T01:29:35;404.83;;;112.93;;
7887;SDS011;3989;48.810;9.208;2024-01-06T01:32:04;401.93;;;109.27;;
7887;SDS011;3989;48.810;9.208;2024-01-06T01:34:32;405.07;;;114.43;;
7887;SDS011;3989;48.810;9.208;2024-01-06T01:36:59;401.13;;;112.33;;
7887;SDS011;3989;48.810;9.208;2024-01-06T01:39:26;405.30;;;114.33;;
7887;SDS011;3989;48.810;9.208;2024-01-06T01:41:56;400.37;;;108.07;;
7887;SDS011;3989;48.810;9.208;2024-01-06T01:44:23;401.27;;;109.80;;
7887;SDS011;3989;48.810;9.208;2024-01-06T01:46:50;401.93;;;106.57;;
7887;SDS011;3989;48.810;9.208;2024-01-06T01:49:18;399.50;;;105.27;;
7887;SDS011;3989;48.810;9.208;2024-01-06T01:51:46;407.50;;;114.33;;
7887;SDS011;3989;48.810;9.208;2024-01-06T01:54:13;401.17;;;109.97;;
7887;SDS011;3989;48.810;9.208;2024-01-06T01:56:41;401.83;;;103.63;;
7887;SDS011;3989;48.810;9.208;2024-01-06T01:59:09;398.27;;;97.47;;
7887;SDS011;3989;48.810;9.208;2024-01-06T02:01:38;402.03;;;105.67;;
7887;SDS011;3989;48.810;9.208;2024-01-06T02:04:06;400.70;;;105.53;;
7887;SDS011;3989;48.810;9.208;2024-01-06T02:06:34;402.93;;;111.37;;
7887;SDS011;3989;48.810;9.208;2024-01-06T02:09:01;402.80;;;112.37;;
7887;SDS011;3989;48.810;9.208;2024-01-06T02:11:28;408.33;;;110.57;;
7887;SDS011;3989;48.810;9.208;2024-01-06T02:13:55;399.03;;;104.83;;
7887;SDS011;3989;48.810;9.208;2024-01-06T02:16:22;402.00;;;108.23;;
7887;SDS011;3989;48.810;9.208;2024-01-06T02:18:49;399.30;;;105.83;;
7887;SDS011;3989;48.810;9.208;2024-01-06T02:21:16;408.23;;;118.87;;
7887;SDS011;3989;48.810;9.208;2024-01-06T02:23:47;399.90;;;108.00;;
7887;SDS011;3989;48.810;9.208;2024-01-06T02:26:15;400.93;;;103.03;;
7887;SDS011;3989;48.810;9.208;2024-01-06T02:28:42;400.83;;;107.43;;
7887;SDS011;3989;48.810;9.208;2024-01-06T02:31:12;403.10;;;108.73;;
7887;SDS011;3989;48.810;9.208;2024-01-06T02:33:39;401.00;;;112.13;;
7887;SDS011;3989;48.810;9.208;2024-01-06T02:36:06;398.40;;;107.23;;
7887;SDS011;3989;48.810;9.208;2024-01-06T02:38:33;405.20;;;111.23;;
7887;SDS011;3989;48.810;9.208;2024-01-06T02:41:02;393.47;;;98.23;;
7887;SDS011;3989;48.810;9.208;2024-01-06T02:43:29;399.03;;;107.03;;
7887;SDS011;3989;48.810;9.208;2024-01-06T02:45:55;404.57;;;106.07;;
7887;SDS011;3989;48.810;9.208;2024-01-06T02:48:22;406.03;;;109.13;;
7887;SDS011;3989;48.810;9.208;2024-01-06T02:50:49;408.40;;;118.47;;
7887;SDS011;3989;48.810;9.208;2024-01-06T02:53:16;403.20;;;108.60;;
7887;SDS011;3989;48.810;9.208;2024-01-06T02:55:43;400.43;;;110.10;;
7887;SDS011;3989;48.810;9.208;2024-01-06T02:58:11;402.93;;;108.47;;
7887;SDS011;3989;48.810;9.208;2024-01-06T03:00:38;396.67;;;100.80;;
7887;SDS011;3989;48.810;9.208;2024-01-06T03:03:05;405.03;;;113.40;;
7887;SDS011;3989;48.810;9.208;2024-01-06T03:05:31;399.87;;;109.93;;
7887;SDS011;3989;48.810;9.208;2024-01-06T03:07:58;403.93;;;113.57;;
7887;SDS011;3989;48.810;9.208;2024-01-06T03:10:25;405.13;;;108.60;;
7887;SDS011;3989;48.810;9.208;2024-01-06T03:12:52;403.53;;;116.43;;
7887;SDS011;3989;48.810;9.208;2024-01-06T03:15:21;401.53;;;109.40;;
7887;SDS011;3989;48.810;9.208;2024-01-06T03:17:48;402.83;;;114.30;;
7887;SDS011;3989;48.810;9.208;2024-01-06T03:20:15;398.03;;;106.17;;
7887;SDS011;3989;48.810;9.208;2024-01-06T03:22:42;400.47;;;104.83;;
7887;SDS011;3989;48.810;9.208;2024-01-06T03:25:09;401.37;;;106.97;;
7887;SDS011;3989;48.810;9.208;2024-01-06T03:27:36;405.97;;;111.57;;
7887;SDS011;3989;48.810;9.208;2024-01-06T03:30:03;403.33;;;113.93;;
7887;SDS011;3989;48.810;9.208;2024-01-06T03:32:33;397.93;;;100.83;;
7887;SDS011;3989;48.810;9.208;2024-01-06T03:35:00;404.53;;;111.73;;
7887;SDS011;3989;48.810;9.208;2024-01-06T03:37:27;399.70;;;105.23;;
7887;SDS011;3989;48.810;9.208;2024-01-06T03:39:53;403.60;;;107.80;;
7887;SDS011;3989;48.810;9.208;2024-01-06T03:42:20;415.67;;;127.87;;
7887;SDS011;3989;48.810;9.208;2024-01-06T03:44:47;403.77;;;109.97;;
7887;SDS011;3989;48.810;9.208;2024-01-06T03:47:14;402.83;;;110.40;;
7887;SDS011;3989;48.810;9.208;2024-01-06T03:49:42;405.23;;;107.80;;
7887;SDS011;3989;48.810;9.208;2024-01-06T03:52:09;401.00;;;105.57;;
7887;SDS011;3989;48.810;9.208;2024-01-06T03:54:36;398.03;;;97.80;;
7887;SDS011;3989;48.810;9.208;2024-01-06T03:57:02;402.40;;;103.27;;
7887;SDS011;3989;48.810;9.208;2024-01-06T03:59:29;401.77;;;108.33;;
7887;SDS011;3989;48.810;9.208;2024-01-06T04:01:56;399.07;;;108.70;;
7887;SDS011;3989;48.810;9.208;2024-01-06T04:04:23;403.70;;;105.27;;
7887;SDS011;3989;48.810;9.208;2024-01-06T04:06:51;403.07;;;109.00;;
7887;SDS011;3989;48.810;9.208;2024-01-06T04:09:17;403.43;;;106.27;;
7887;SDS011;3989;48.810;9.208;2024-01-06T04:11:44;399.37;;;104.03;;
7887;SDS011;3989;48.810;9.208;2024-01-06T04:14:11;403.77;;;104.87;;
7887;SDS011;3989;48.810;9.208;2024-01-06T04:16:38;395.90;;;98.00;;
7887;SDS011;3989;48.810;9.208;2024-01-06T04:19:05;398.60;;;102.10;;
7887;SDS011;3989;48.810;9.208;2024-01-06T04:21:33;399.50;;;100.00;;
7887;SDS011;3989;48.810;9.208;2024-01-06T04:24:02;399.17;;;95.07;;
7887;SDS011;3989;48.810;9.208;2024-01-06T04:26:29;400.87;;;106.73;;
7887;SDS011;3989;48.810;9.208;2024-01-06T04:28:55;397.67;;;98.13;;
7887;SDS011;3989;48.810;9.208;2024-01-06T04:31:22;400.30;;;106.23;;
7887;SDS011;3989;48.810;9.208;2024-01-06T04:33:49;398.20;;;104.23;;
7887;SDS011;3989;48.810;9.208;2024-01-06T04:36:16;394.37;;;98.03;;
7887;SDS011;3989;48.810;9.208;2024-01-06T04:38:43;395.20;;;98.87;;
7887;SDS011;3989;48.810;9.208;2024-01-06T04:41:11;401.43;;;109.00;;
7887;SDS011;3989;48.810;9.208;2024-01-06T04:43:38;400.27;;;99.83;;
7887;SDS011;3989;48.810;9.208;2024-01-06T04:46:05;399.67;;;104.23;;
7887;SDS011;3989;48.810;9.208;2024-01-06T04:48:31;398.57;;;103.07;;
7887;SDS011;3989;48.810;9.208;2024-01-06T04:50:58;406.70;;;103.13;;
7887;SDS011;3989;48.810;9.208;2024-01-06T04:53:25;400.77;;;105.40;;
7887;SDS011;3989;48.810;9.208;2024-01-06T04:55:51;399.77;;;98.73;;
7887;SDS011;3989;48.810;9.208;2024-01-06T04:58:20;398.90;;;102.97;;
7887;SDS011;3989;48.810;9.208;2024-01-06T05:00:47;399.97;;;109.57;;
7887;SDS011;3989;48.810;9.208;2024-01-06T05:03:16;399.53;;;104.00;;
7887;SDS011;3989;48.810;9.208;2024-01-06T05:05:43;402.20;;;104.80;;
7887;SDS011;3989;48.810;9.208;2024-01-06T05:08:10;395.73;;;98.07;;
7887;SDS011;3989;48.810;9.208;2024-01-06T05:10:37;397.83;;;103.13;;
7887;SDS011;3989;48.810;9.208;2024-01-06T05:13:04;395.50;;;101.63;;
7887;SDS011;3989;48.810;9.208;2024-01-06T05:15:32;395.83;;;99.20;;
7887;SDS011;3989;48.810;9.208;2024-01-06T05:17:59;392.80;;;92.80;;
7887;SDS011;3989;48.810;9.208;2024-01-06T05:20:26;403.10;;;107.37;;
7887;SDS011;3989;48.810;9.208;2024-01-06T05:22:52;400.70;;;101.67;;
7887;SDS011;3989;48.810;9.208;2024-01-06T05:25:20;397.07;;;105.20;;
7887;SDS011;3989;48.810;9.208;2024-01-06T05:27:49;395.57;;;98.40;;
7887;SDS011;3989;48.810;9.208;2024-01-06T05:30:21;402.73;;;109.00;;
7887;SDS011;3989;48.810;9.208;2024-01-06T05:32:52;398.20;;;101.10;;
7887;SDS011;3989;48.810;9.208;2024-01-06T05:35:30;399.00;;;102.80;;
7887;SDS011;3989;48.810;9.208;2024-01-06T05:38:00;399.83;;;103.10;;
7887;SDS011;3989;48.810;9.208;2024-01-06T05:40:30;400.80;;;106.97;;
7887;SDS011;3989;48.810;9.208;2024-01-06T05:42:57;398.83;;;102.23;;
7887;SDS011;3989;48.810;9.208;2024-01-06T05:45:24;398.93;;;102.87;;
7887;SDS011;3989;48.810;9.208;2024-01-06T05:47:52;402.40;;;112.77;;
7887;SDS011;3989;48.810;9.208;2024-01-06T05:50:19;405.00;;;107.90;;
7887;SDS011;3989;48.810;9.208;2024-01-06T05:52:46;407.50;;;111.63;;
7887;SDS011;3989;48.810;9.208;2024-01-06T05:55:14;401.17;;;106.90;;
7887;SDS011;3989;48.810;9.208;2024-01-06T05:57:42;399.77;;;107.13;;
7887;SDS011;3989;48.810;9.208;2024-01-06T06:00:10;396.40;;;104.47;;
7887;SDS011;3989;48.810;9.208;2024-01-06T06:02:38;399.43;;;104.00;;
7887;SDS011;3989;48.810;9.208;2024-01-06T06:05:07;395.67;;;100.40;;
7887;SDS011;3989;48.810;9.208;2024-01-06T06:07:34;400.40;;;107.53;;
7887;SDS011;3989;48.810;9.208;2024-01-06T06:10:05;396.67;;;98.57;;
7887;SDS011;3989;48.810;9.208;2024-01-06T06:12:33;394.97;;;101.17;;
7887;SDS011;3989;48.810;9.208;2024-01-06T06:15:01;403.23;;;112.57;;
7887;SDS011;3989;48.810;9.208;2024-01-06T06:17:28;402.40;;;111.80;;
7887;SDS011;3989;48.810;9.208;2024-01-06T06:19:55;401.10;;;104.47;;
7887;SDS011;3989;48.810;9.208;2024-01-06T06:22:27;398.03;;;100.00;;
7887;SDS011;3989;48.810;9.208;2024-01-06T06:24:56;400.73;;;106.57;;
7887;SDS011;3989;48.810;9.208;2024-01-06T06:27:23;396.67;;;100.10;;
7887;SDS011;3989;48.810;9.208;2024-01-06T06:29:50;404.83;;;110.27;;
7887;SDS011;3989;48.810;9.208;2024-01-06T06:32:16;403.80;;;114.70;;
7887;SDS011;3989;48.810;9.208;2024-01-06T06:34:43;399.00;;;101.23;;
7887;SDS011;3989;48.810;9.208;2024-01-06T06:37:10;409.50;;;115.63;;
7887;SDS011;3989;48.810;9.208;2024-01-06T06:39:39;400.07;;;107.07;;
7887;SDS011;3989;48.810;9.208;2024-01-06T06:42:06;403.87;;;110.20;;
7887;SDS011;3989;48.810;9.208;2024-01-06T06:44:32;402.53;;;112.07;;
7887;SDS011;3989;48.810;9.208;2024-01-06T06:46:59;399.57;;;103.90;;
7887;SDS011;3989;48.810;9.208;2024-01-06T06:49:26;404.80;;;110.53;;
7887;SDS011;3989;48.810;9.208;2024-01-06T06:51:52;406.87;;;119.60;;
7887;SDS011;3989;48.810;9.208;2024-01-06T06:54:21;400.23;;;106.97;;
7887;SDS011;3989;48.810;9.208;2024-01-06T06:56:49;405.23;;;115.63;;
7887;SDS011;3989;48.810;9.208;2024-01-06T06:59:16;404.93;;;113.80;;
7887;SDS011;3989;48.810;9.208;2024-01-06T07:01:43;406.33;;;115.03;;
7887;SDS011;3989;48.810;9.208;2024-01-06T07:04:10;400.53;;;106.97;;
7887;SDS011;3989;48.810;9.208;2024-01-06T07:06:36;403.83;;;107.87;;
7887;SDS011;3989;48.810;9.208;2024-01-06T07:09:03;404.07;;;109.27;;
7887;SDS011;3989;48.810;9.208;2024-01-06T07:11:30;403.47;;;113.17;;
7887;SDS011;3989;48.810;9.208;2024-01-06T07:13:59;403.57;;;114.63;;
7887;SDS011;3989;48.810;9.208;2024-01-06T07:16:26;402.63;;;104.20;;
7887;SDS011;3989;48.810;9.208;2024-01-06T07:18:53;398.47;;;107.20;;
7887;SDS011;3989;48.810;9.208;2024-01-06T07:21:19;405.00;;;116.13;;
7887;SDS011;3989;48.810;9.208;2024-01-06T07:23:46;405.60;;;113.17;;
7887;SDS011;3989;48.810;9.208;2024-01-06T07:26:13;400.87;;;106.27;;
7887;SDS011;3989;48.810;9.208;2024-01-06T07:28:40;404.80;;;113.47;;
7887;SDS011;3989;48.810;9.208;2024-01-06T07:31:11;399.97;;;109.13;;
7887;SDS011;3989;48.810;9.208;2024-01-06T07:33:38;404.07;;;119.93;;
7887;SDS011;3989;48.810;9.208;2024-01-06T07:36:08;400.67;;;113.27;;
7887;SDS011;3989;48.810;9.208;2024-01-06T07:38:37;406.63;;;113.70;;
7887;SDS011;3989;48.810;9.208;2024-01-06T07:41:04;401.67;;;114.43;;
7887;SDS011;3989;48.810;9.208;2024-01-06T07:43:31;403.43;;;111.40;;
7887;SDS011;3989;48.810;9.208;2024-01-06T07:45:58;403.37;;;113.70;;
7887;SDS011;3989;48.810;9.208;2024-01-06T07:48:26;402.23;;;112.40;;
7887;SDS011;3989;48.810;9.208;2024-01-06T07:50:53;400.67;;;110.33;;
7887;SDS011;3989;48.810;9.208;2024-01-06T07:53:19;411.43;;;125.87;;
7887;SDS011;3989;48.810;9.208;2024-01-06T07:55:47;402.70;;;111.67;;
7887;SDS011;3989;48.810;9.208;2024-01-06T07:58:14;407.23;;;117.83;;
7887;SDS011;3989;48.810;9.208;2024-01-06T08:00:41;410.53;;;122.00;;
7887;SDS011;3989;48.810;9.208;2024-01-06T08:03:07;404.67;;;111.77;;
7887;SDS011;3989;48.810;9.208;2024-01-06T08:05:38;402.87;;;112.50;;
7887;SDS011;3989;48.810;9.208;2024-01-06T08:08:05;403.93;;;117.37;;
7887;SDS011;3989;48.810;9.208;2024-01-06T08:10:32;403.83;;;114.27;;
7887;SDS011;3989;48.810;9.208;2024-01-06T08:12:58;410.03;;;124.03;;
7887;SDS011;3989;48.810;9.208;2024-01-06T08:15:25;399.03;;;106.67;;
7887;SDS011;3989;48.810;9.208;2024-01-06T08:17:52;405.30;;;118.80;;
7887;SDS011;3989;48.810;9.208;2024-01-06T08:20:19;405.53;;;113.77;;
7887;SDS011;3989;48.810;9.208;2024-01-06T08:22:48;406.90;;;117.37;;
7887;SDS011;3989;48.810;9.208;2024-01-06T08:25:15;405.47;;;116.07;;
7887;SDS011;3989;48.810;9.208;2024-01-06T08:27:42;404.83;;;116.37;;
7887;SDS011;3989;48.810;9.208;2024-01-06T08:30:09;403.87;;;115.40;;
7887;SDS011;3989;48.810;9.208;2024-01-06T08:32:37;405.30;;;114.87;;
7887;SDS011;3989;48.810;9.208;2024-01-06T08:35:04;407.60;;;121.50;;
7887;SDS011;3989;48.810;9.208;2024-01-06T08:37:32;400.97;;;112.10;;
7887;SDS011;3989;48.810;9.208;2024-01-06T08:40:01;413.43;;;126.57;;
7887;SDS011;3989;48.810;9.208;2024-01-06T08:42:28;409.73;;;121.97;;
7887;SDS011;3989;48.810;9.208;2024-01-06T08:45:01;411.27;;;130.57;;
7887;SDS011;3989;48.810;9.208;2024-01-06T08:47:31;408.77;;;121.73;;
7887;SDS011;3989;48.810;9.208;2024-01-06T08:49:57;410.60;;;119.20;;
7887;SDS011;3989;48.810;9.208;2024-01-06T08:52:23;409.73;;;125.73;;
7887;SDS011;3989;48.810;9.208;2024-01-06T08:54:50;410.53;;;123.43;;
7887;SDS011;3989;48.810;9.208;2024-01-06T08:57:18;409.10;;;119.63;;
7887;SDS011;3989;48.810;9.208;2024-01-06T08:59:45;405.90;;;113.90;;
7887;SDS011;3989;48.810;9.208;2024-01-06T09:02:12;409.73;;;121.87;;
7887;SDS011;3989;48.810;9.208;2024-01-06T09:04:39;408.80;;;116.83;;
7887;SDS011;3989;48.810;9.208;2024-01-06T09:07:06;410.13;;;121.77;;
7887;SDS011;3989;48.810;9.208;2024-01-06T09:09:33;420.83;;;134.10;;
7887;SDS011;3989;48.810;9.208;2024-01-06T09:12:00;415.90;;;127.23;;
7887;SDS011;3989;48.810;9.208;2024-01-06T09:14:27;412.23;;;126.70;;
7887;SDS011;3989;48.810;9.208;2024-01-06T09:16:54;413.23;;;136.03;;
7887;SDS011;3989;48.810;9.208;2024-01-06T09:19:22;415.63;;;139.17;;
7887;SDS011;3989;48.810;9.208;2024-01-06T09:21:49;413.70;;;129.83;;
7887;SDS011;3989;48.810;9.208;2024-01-06T09:24:16;410.67;;;120.40;;
7887;SDS011;3989;48.810;9.208;2024-01-06T09:26:43;410.63;;;125.63;;
7887;SDS011;3989;48.810;9.208;2024-01-06T09:29:10;410.37;;;127.43;;
7887;SDS011;3989;48.810;9.208;2024-01-06T09:31:38;409.37;;;119.63;;
7887;SDS011;3989;48.810;9.208;2024-01-06T09:34:07;411.40;;;129.33;;
7887;SDS011;3989;48.810;9.208;2024-01-06T09:36:37;403.70;;;115.03;;
7887;SDS011;3989;48.810;9.208;2024-01-06T09:39:04;412.87;;;130.80;;
7887;SDS011;3989;48.810;9.208;2024-01-06T09:41:33;423.20;;;139.90;;
7887;SDS011;3989;48.810;9.208;2024-01-06T09:44:00;406.93;;;115.57;;
7887;SDS011;3989;48.810;9.208;2024-01-06T09:46:27;411.70;;;131.10;;
7887;SDS011;3989;48.810;9.208;2024-01-06T09:48:57;412.97;;;128.83;;
7887;SDS011;3989;48.810;9.208;2024-01-06T09:51:25;409.07;;;123.63;;
7887;SDS011;3989;48.810;9.208;2024-01-06T09:53:56;412.20;;;129.23;;
7887;SDS011;3989;48.810;9.208;2024-01-06T09:56:25;415.47;;;129.43;;
7887;SDS011;3989;48.810;9.208;2024-01-06T09:58:53;419.23;;;133.93;;
7887;SDS011;3989;48.810;9.208;2024-01-06T10:01:21;410.90;;;126.40;;
7887;SDS011;3989;48.810;9.208;2024-01-06T10:03:48;419.20;;;148.57;;
7887;SDS011;3989;48.810;9.208;2024-01-06T10:06:16;419.37;;;142.27;;
7887;SDS011;3989;48.810;9.208;2024-01-06T10:08:48;407.33;;;123.83;;
7887;SDS011;3989;48.810;9.208;2024-01-06T10:11:16;410.83;;;125.93;;
7887;SDS011;3989;48.810;9.208;2024-01-06T10:13:43;408.30;;;122.93;;
7887;SDS011;3989;48.810;9.208;2024-01-06T10:16:10;408.03;;;122.37;;
7887;SDS011;3989;48.810;9.208;2024-01-06T10:18:40;429.63;;;191.90;;
7887;SDS011;3989;48.810;9.208;2024-01-06T10:21:19;412.10;;;126.97;;
7887;SDS011;3989;48.810;9.208;2024-01-06T10:23:47;411.43;;;124.57;;
7887;SDS011;3989;48.810;9.208;2024-01-06T10:26:15;411.13;;;127.93;;
7887;SDS011;3989;48.810;9.208;2024-01-06T10:28:43;417.87;;;136.90;;
7887;SDS011;3989;48.810;9.208;2024-01-06T10:31:10;412.37;;;128.23;;
7887;SDS011;3989;48.810;9.208;2024-01-06T10:33:37;412.97;;;125.20;;
7887;SDS011;3989;48.810;9.208;2024-01-06T10:36:06;409.47;;;120.47;;
7887;SDS011;3989;48.810;9.208;2024-01-06T10:38:36;417.53;;;136.27;;
7887;SDS011;3989;48.810;9.208;2024-01-06T10:41:03;416.53;;;129.23;;
7887;SDS011;3989;48.810;9.208;2024-01-06T10:43:32;406.87;;;119.83;;
7887;SDS011;3989;48.810;9.208;2024-01-06T10:46:03;415.17;;;132.20;;
7887;SDS011;3989;48.810;9.208;2024-01-06T10:48:31;410.50;;;126.83;;
7887;SDS011;3989;48.810;9.208;2024-01-06T10:50:59;407.57;;;121.10;;
7887;SDS011;3989;48.810;9.208;2024-01-06T10:53:27;419.60;;;140.73;;
7887;SDS011;3989;48.810;9.208;2024-01-06T10:56:01;411.70;;;123.00;;
7887;SDS011;3989;48.810;9.208;2024-01-06T10:58:44;406.10;;;115.90;;
7887;SDS011;3989;48.810;9.208;2024-01-06T11:01:15;407.40;;;121.00;;
7887;SDS011;3989;48.810;9.208;2024-01-06T11:03:46;407.50;;;124.67;;
7887;SDS011;3989;48.810;9.208;2024-01-06T11:06:14;406.20;;;115.27;;
7887;SDS011;3989;48.810;9.208;2024-01-06T11:08:44;411.53;;;116.17;;
7887;SDS011;3989;48.810;9.208;2024-01-06T11:11:18;412.17;;;130.20;;
7887;SDS011;3989;48.810;9.208;2024-01-06T11:13:46;409.27;;;128.37;;
7887;SDS011;3989;48.810;9.208;2024-01-06T11:16:27;413.60;;;120.67;;
7887;SDS011;3989;48.810;9.208;2024-01-06T11:19:00;409.17;;;119.97;;
7887;SDS011;3989;48.810;9.208;2024-01-06T11:21:27;407.20;;;114.17;;
7887;SDS011;3989;48.810;9.208;2024-01-06T11:24:15;405.70;;;116.37;;
7887;SDS011;3989;48.810;9.208;2024-01-06T11:26:53;413.33;;;125.37;;
7887;SDS011;3989;48.810;9.208;2024-01-06T11:29:23;410.33;;;126.73;;
7887;SDS011;3989;48.810;9.208;2024-01-06T11:34:47;401.17;;;111.43;;
7887;SDS011;3989;48.810;9.208;2024-01-06T11:37:17;412.67;;;128.37;;
7887;SDS011;3989;48.810;9.208;2024-01-06T11:39:45;411.03;;;118.77;;
7887;SDS011;3989;48.810;9.208;2024-01-06T11:42:13;411.57;;;124.93;;
7887;SDS011;3989;48.810;9.208;2024-01-06T11:44:43;411.00;;;119.80;;
7887;SDS011;3989;48.810;9.208;2024-01-06T11:47:12;409.00;;;119.83;;
7887;SDS011;3989;48.810;9.208;2024-01-06T11:49:41;416.40;;;126.80;;
7887;SDS011;3989;48.810;9.208;2024-01-06T11:52:11;408.77;;;119.13;;
7887;SDS011;3989;48.810;9.208;2024-01-06T11:54:41;414.40;;;133.33;;
7887;SDS011;3989;48.810;9.208;2024-01-06T11:57:08;413.30;;;128.70;;
7887;SDS011;3989;48.810;9.208;2024-01-06T11:59:37;411.60;;;126.87;;
7887;SDS011;3989;48.810;9.208;2024-01-06T12:02:04;412.60;;;126.57;;
7887;SDS011;3989;48.810;9.208;2024-01-06T12:04:31;411.97;;;123.13;;
7887;SDS011;3989;48.810;9.208;2024-01-06T12:07:05;419.87;;;141.33;;
7887;SDS011;3989;48.810;9.208;2024-01-06T12:09:33;418.97;;;129.70;;
7887;SDS011;3989;48.810;9.208;2024-01-06T12:12:01;411.17;;;125.17;;
7887;SDS011;3989;48.810;9.208;2024-01-06T12:14:29;411.50;;;123.90;;
7887;SDS011;3989;48.810;9.208;2024-01-06T12:16:59;415.47;;;137.47;;
7887;SDS011;3989;48.810;9.208;2024-01-06T12:19:28;412.07;;;127.47;;
7887;SDS011;3989;48.810;9.208;2024-01-06T12:21:57;419.90;;;139.90;;
7887;SDS011;3989;48.810;9.208;2024-01-06T12:24:24;415.30;;;137.13;;
7887;SDS011;3989;48.810;9.208;2024-01-06T12:26:54;418.73;;;141.23;;
7887;SDS011;3989;48.810;9.208;2024-01-06T12:29:23;417.07;;;131.43;;
7887;SDS011;3989;48.810;9.208;2024-01-06T12:31:53;413.63;;;128.10;;
7887;SDS011;3989;48.810;9.208;2024-01-06T12:34:23;414.30;;;133.20;;
7887;SDS011;3989;48.810;9.208;2024-01-06T12:36:51;416.30;;;137.33;;
7887;SDS011;3989;48.810;9.208;2024-01-06T12:39:21;412.23;;;129.93;;
7887;SDS011;3989;48.810;9.208;2024-01-06T12:41:50;413.30;;;126.13;;
7887;SDS011;3989;48.810;9.208;2024-01-06T12:44:18;414.97;;;135.53;;
7887;SDS011;3989;48.810;9.208;2024-01-06T12:46:45;407.07;;;121.37;;
7887;SDS011;3989;48.810;9.208;2024-01-06T12:49:12;413.40;;;126.07;;
7887;SDS011;3989;48.810;9.208;2024-01-06T12:51:41;405.77;;;111.90;;
7887;SDS011;3989;48.810;9.208;2024-01-06T12:54:09;410.67;;;122.00;;
7887;SDS011;3989;48.810;9.208;2024-01-06T12:56:36;413.03;;;131.93;;
7887;SDS011;3989;48.810;9.208;2024-01-06T12:59:03;409.90;;;121.90;;
7887;SDS011;3989;48.810;9.208;2024-01-06T13:01:31;411.53;;;129.77;;
7887;SDS011;3989;48.810;9.208;2024-01-06T13:03:58;413.40;;;131.07;;
7887;SDS011;3989;48.810;9.208;2024-01-06T13:06:26;415.97;;;136.17;;
7887;SDS011;3989;48.810;9.208;2024-01-06T13:08:55;414.13;;;133.37;;
7887;SDS011;3989;48.810;9.208;2024-01-06T13:11:22;409.80;;;122.43;;
7887;SDS011;3989;48.810;9.208;2024-01-06T13:13:49;408.67;;;120.57;;
7887;SDS011;3989;48.810;9.208;2024-01-06T13:16:16;412.47;;;125.13;;
7887;SDS011;3989;48.810;9.208;2024-01-06T13:18:44;408.17;;;118.37;;
7887;SDS011;3989;48.810;9.208;2024-01-06T13:21:10;411.83;;;118.93;;
7887;SDS011;3989;48.810;9.208;2024-01-06T13:23:38;407.53;;;111.13;;
7887;SDS011;3989;48.810;9.208;2024-01-06T13:26:07;408.43;;;118.47;;
7887;SDS011;3989;48.810;9.208;2024-01-06T13:28:34;411.13;;;116.63;;
7887;SDS011;3989;48.810;9.208;2024-01-06T13:31:01;409.23;;;119.30;;
7887;SDS011;3989;48.810;9.208;2024-01-06T13:33:28;410.90;;;118.00;;
7887;SDS011;3989;48.810;9.208;2024-01-06T13:35:55;411.10;;;117.93;;
7887;SDS011;3989;48.810;9.208;2024-01-06T13:38:23;405.67;;;113.10;;
7887;SDS011;3989;48.810;9.208;2024-01-06T13:40:51;414.00;;;128.27;;
7887;SDS011;3989;48.810;9.208;2024-01-06T13:43:20;411.53;;;125.87;;
7887;SDS011;3989;48.810;9.208;2024-01-06T13:45:47;410.80;;;126.47;;
7887;SDS011;3989;48.810;9.208;2024-01-06T13:48:14;414.33;;;127.17;;
7887;SDS011;3989;48.810;9.208;2024-01-06T13:50:41;411.37;;;127.80;;
7887;SDS011;3989;48.810;9.208;2024-01-06T13:53:08;415.80;;;131.70;;
7887;SDS011;3989;48.810;9.208;2024-01-06T13:55:35;408.67;;;118.47;;
7887;SDS011;3989;48.810;9.208;2024-01-06T13:58:02;414.63;;;137.07;;
7887;SDS011;3989;48.810;9.208;2024-01-06T14:00:31;406.37;;;116.77;;
7887;SDS011;3989;48.810;9.208;2024-01-06T14:02:58;410.03;;;121.90;;
7887;SDS011;3989;48.810;9.208;2024-01-06T14:05:26;410.40;;;128.50;;
7887;SDS011;3989;48.810;9.208;2024-01-06T14:07:53;418.63;;;135.37;;
7887;SDS011;3989;48.810;9.208;2024-01-06T14:10:20;416.03;;;131.63;;
7887;SDS011;3989;48.810;9.208;2024-01-06T14:12:48;411.03;;;127.93;;
7887;SDS011;3989;48.810;9.208;2024-01-06T14:15:15;409.67;;;118.50;;
7887;SDS011;3989;48.810;9.208;2024-01-06T14:17:44;405.27;;;115.30;;
7887;SDS011;3989;48.810;9.208;2024-01-06T14:20:14;413.63;;;117.83;;
7887;SDS011;3989;48.810;9.208;2024-01-06T14:22:42;405.30;;;113.63;;
7887;SDS011;3989;48.810;9.208;2024-01-06T14:25:10;406.63;;;113.23;;
7887;SDS011;3989;48.810;9.208;2024-01-06T14:27:37;410.83;;;114.47;;